.
WxDataArchive / Data Records for 2013-06-14
2013-06-13 June 2013 2013-06-15

Data Records for Friday, 14 June 2013

Time	Temp	Chill	HIndex	Humid	Dewpt	 Wind 	HiWind	WindDir	Rain 	Barom 
-----	----	-----	------	-----	-----	------	------	-------	-----	----- 
00:00	62.4	62.4	62.4	70	52.5	1	3	292	0.00	29.933 
00:05	62.3	62.3	62.3	71	52.8	0	2	292	0.00	29.933 
00:10	62.1	62.1	62.1	71	52.6	1	3	292	0.00	29.933 
00:15	62.0	62.0	62.0	72	52.9	0	3	292	0.00	29.930 
00:20	61.8	61.8	61.8	73	53.0	0	3	292	0.00	29.930 
00:25	61.6	61.6	61.6	73	52.9	0	2	292	0.00	29.930 
00:30	61.5	61.5	61.5	73	52.8	0	3	292	0.00	29.933 
00:35	61.3	61.3	61.3	74	52.9	0	2	292	0.00	29.933 
00:40	61.3	61.3	61.3	74	52.9	1	2	292	0.00	29.933 
00:45	61.2	61.2	61.2	75	53.2	0	2	292	0.00	29.933 
00:50	61.0	61.0	61.0	76	53.4	1	3	292	0.00	29.933 
00:55	61.0	61.0	61.0	76	53.4	0	2	292	0.00	29.933 
01:00	60.9	60.9	60.9	77	53.6	1	2	292	0.00	29.931 
01:05	60.7	60.7	60.7	77	53.4	0	3	292	0.00	29.931 
01:10	60.5	60.5	60.5	77	53.2	0	2	292	0.00	29.931 
01:15	60.4	60.4	60.4	78	53.5	1	2	292	0.00	29.929 
01:20	60.4	60.4	60.4	78	53.5	0	3	292	0.00	29.929 
01:25	60.2	60.2	60.2	79	53.7	1	2	292	0.00	29.929 
01:30	60.1	60.1	60.1	79	53.6	1	2	292	0.00	29.935 
01:35	60.1	60.1	60.1	80	53.9	1	2	292	0.00	29.935 
01:40	59.9	59.9	59.9	80	53.7	0	2	292	0.00	29.935 
01:45	59.9	59.9	59.9	81	54.1	1	2	292	0.00	29.934 
01:50	59.8	59.8	59.8	81	54.0	1	3	292	0.00	29.934 
01:55	59.8	59.8	59.8	81	54.0	1	3	292	0.00	29.934 
02:00	59.6	59.6	59.6	82	54.1	1	3	292	0.00	29.932 
02:05	59.6	59.6	59.6	82	54.1	1	4	315	0.00	29.932 
02:10	59.5	59.5	59.5	83	54.3	1	4	315	0.00	29.932 
02:15	59.5	59.5	59.5	83	54.3	1	2	315	0.00	29.930 
02:20	59.5	59.5	59.5	83	54.3	1	3	315	0.00	29.930 
02:25	59.5	59.5	59.5	83	54.3	1	2	315	0.00	29.930 
02:30	59.3	59.3	59.3	84	54.5	1	3	315	0.00	29.929 
02:35	59.3	59.3	59.3	84	54.5	1	3	315	0.00	29.929 
02:40	59.2	59.2	59.2	84	54.4	0	2	315	0.00	29.929 
02:45	59.2	59.2	59.2	85	54.7	0	3	315	0.00	29.931 
02:50	59.0	59.0	59.0	85	54.5	0	2	315	0.00	29.931 
02:55	59.0	59.0	59.0	85	54.5	0	2	315	0.00	29.931 
03:00	59.0	59.0	59.0	86	54.8	0	2	315	0.00	29.930 
03:05	58.9	58.9	58.9	86	54.7	0	1	315	0.00	29.930 
03:10	58.9	58.9	58.9	86	54.7	0	1	315	0.00	29.930 
03:15	58.9	58.9	58.9	87	55.0	0	1	315	0.00	29.928 
03:20	58.9	58.9	58.9	87	55.0	0	1	315	0.00	29.928 
03:25	58.9	58.9	58.9	87	55.0	0	2	315	0.00	29.928 
03:30	58.7	58.7	58.7	88	55.2	0	1	315	0.00	29.925 
03:35	58.9	58.9	58.9	88	55.3	0	2	315	0.00	29.925 
03:40	58.7	58.7	58.7	88	55.2	0	1	315	0.00	29.925 
03:45	58.7	58.7	58.7	88	55.2	0	1	315	0.00	29.926 
03:50	58.7	58.7	58.7	88	55.2	0	1	315	0.00	29.926 
03:55	58.7	58.7	58.7	88	55.2	0	2	315	0.00	29.926 
04:00	58.7	58.7	58.7	88	55.2	0	1	315	0.00	29.929 
04:05	58.7	58.7	58.7	89	55.5	0	1	315	0.00	29.929 
04:10	58.7	58.7	58.7	89	55.5	0	1	315	0.00	29.929 
04:15	58.7	58.7	58.7	89	55.5	0	2	315	0.00	29.934 
04:20	58.7	58.7	58.7	89	55.5	0	2	315	0.00	29.934 
04:25	58.7	58.7	58.7	89	55.5	0	1	315	0.00	29.934 
04:30	58.7	58.7	58.7	89	55.5	0	1	315	0.00	29.940 
04:35	58.7	58.7	58.7	89	55.5	0	3	315	0.00	29.940 
04:40	58.7	58.7	58.7	89	55.5	0	1	315	0.00	29.940 
04:45	58.7	58.7	58.7	89	55.5	0	2	315	0.00	29.939 
04:50	58.7	58.7	58.7	89	55.5	0	2	315	0.00	29.939 
04:55	58.7	58.7	58.7	89	55.5	0	2	315	0.00	29.939 
05:00	58.7	58.7	58.7	89	55.5	0	2	315	0.00	29.941 
05:05	58.7	58.7	58.7	89	55.5	0	2	315	0.00	29.941 
05:10	58.7	58.7	58.7	89	55.5	0	1	315	0.00	29.941 
05:15	58.7	58.7	58.7	89	55.5	0	1	315	0.00	29.943 
05:20	58.6	58.6	58.6	89	55.4	0	2	315	0.00	29.943 
05:25	58.6	58.6	58.6	89	55.4	0	1	315	0.00	29.943 
05:30	58.6	58.6	58.6	90	55.7	0	1	315	0.00	29.949 
05:35	58.4	58.4	58.4	90	55.5	0	2	315	0.00	29.949 
05:40	58.4	58.4	58.4	90	55.5	0	1	315	0.00	29.949 
05:45	58.4	58.4	58.4	90	55.5	0	1	315	0.00	29.957 
05:50	58.4	58.4	58.4	90	55.5	0	1	315	0.00	29.957 
05:55	58.4	58.4	58.4	90	55.5	0	1	315	0.00	29.957 
06:00	58.3	58.3	58.3	90	55.4	0	2	315	0.00	29.960 
06:05	58.3	58.3	58.3	90	55.4	0	1	315	0.00	29.960 
06:10	58.3	58.3	58.3	90	55.4	0	2	315	0.00	29.960 
06:15	58.3	58.3	58.3	90	55.4	0	1	315	0.00	29.965 
06:20	58.1	58.1	58.1	90	55.2	0	0	---	0.00	29.965 
06:25	58.0	58.0	58.0	90	55.1	0	0	---	0.00	29.965 
06:30	58.0	58.0	58.0	90	55.1	0	0	---	0.00	29.975 
06:35	58.0	58.0	58.0	90	55.1	0	0	---	0.00	29.975 
06:40	58.0	58.0	58.0	91	55.4	0	1	315	0.00	29.975 
06:45	58.0	58.0	58.0	91	55.4	0	0	---	0.00	29.984 
06:50	58.0	58.0	58.0	91	55.4	0	0	---	0.00	29.984 
06:55	58.1	58.1	58.1	91	55.5	0	1	315	0.00	29.984 
07:00	58.3	58.3	58.3	91	55.7	0	1	315	0.00	29.992 
07:05	58.4	58.4	58.4	91	55.8	0	1	315	0.00	29.992 
07:10	58.6	58.6	58.6	91	56.0	0	2	315	0.00	29.992 
07:15	58.7	58.7	58.7	91	56.1	0	1	315	0.00	29.996 
07:20	58.9	58.9	58.9	91	56.3	0	1	315	0.00	29.996 
07:25	59.2	59.2	59.2	90	56.3	0	1	315	0.00	29.996 
07:30	59.5	59.5	59.5	90	56.6	0	3	315	0.00	30.009 
07:35	59.8	59.8	59.8	89	56.5	0	2	315	0.00	30.009 
07:40	60.1	60.1	60.1	88	56.5	0	1	315	0.00	30.009 
07:45	60.4	60.4	60.4	88	56.8	0	1	315	0.00	30.009 
07:50	60.9	60.9	60.9	87	57.0	0	2	315	0.00	30.009 
07:55	61.2	61.2	61.2	86	57.0	0	4	315	0.00	30.009 
08:00	61.8	61.8	61.8	85	57.2	0	1	315	0.00	30.021 
08:05	62.1	62.1	62.1	84	57.2	0	3	315	0.00	30.021 
08:10	62.3	62.3	62.3	83	57.1	1	3	315	0.00	30.021 
08:15	62.6	62.6	62.6	82	57.0	1	4	90	0.00	30.025 
08:20	62.7	62.7	62.7	81	56.8	1	5	270	0.00	30.025 
08:25	63.1	63.1	63.1	81	57.2	1	3	270	0.00	30.025 
08:30	63.5	63.5	63.5	80	57.2	1	2	270	0.00	30.021 
08:35	63.9	63.9	63.9	79	57.3	0	2	270	0.00	30.021 
08:40	64.2	64.2	64.2	78	57.2	1	4	270	0.00	30.021 
08:45	64.3	64.3	64.3	77	56.9	1	4	315	0.00	30.024 
08:50	65.0	65.0	65.0	77	57.6	0	2	315	0.00	30.024 
08:55	65.5	65.5	65.5	75	57.4	1	3	315	0.00	30.024 
09:00	66.1	66.1	66.1	74	57.6	0	3	158	0.00	30.023 
09:05	66.3	66.3	66.3	74	57.8	0	2	270	0.00	30.023 
09:10	66.8	66.8	66.8	73	57.9	0	3	90	0.00	30.023 
09:15	66.9	66.9	66.9	72	57.6	0	3	90	0.00	30.039 
09:20	67.4	67.4	67.4	71	57.7	1	4	90	0.00	30.039 
09:25	67.8	67.8	67.8	70	57.6	1	3	112	0.00	30.039 
09:30	67.9	67.9	67.9	69	57.3	1	3	112	0.00	30.037 
09:35	68.1	68.1	68.1	70	57.9	1	3	112	0.00	30.037 
09:40	67.8	67.8	67.8	69	57.2	1	4	315	0.00	30.037 
09:45	67.8	67.8	67.8	69	57.2	1	4	270	0.00	30.044 
09:50	68.3	68.3	68.3	69	57.7	1	5	90	0.00	30.044 
09:55	68.8	68.8	68.8	68	57.8	1	4	90	0.00	30.044 
10:00	69.3	69.3	69.3	69	58.7	0	3	90	0.00	30.049 
10:05	69.8	69.8	69.8	65	57.5	1	4	90	0.00	30.049 
10:10	70.4	70.4	70.4	65	58.1	0	2	90	0.00	30.049 
10:15	70.8	70.8	70.8	64	58.0	0	2	90	0.00	30.055 
10:20	70.6	70.6	70.6	63	57.4	1	3	90	0.00	30.055 
10:25	70.6	70.6	70.6	63	57.4	1	3	90	0.00	30.055 
10:30	70.9	70.9	70.9	63	57.7	1	3	90	0.00	30.054 
10:35	70.6	70.6	70.6	63	57.4	1	5	248	0.00	30.054 
10:40	71.5	71.5	71.5	62	57.8	1	3	135	0.00	30.054 
10:45	71.8	71.8	71.8	63	58.5	1	3	135	0.00	30.051 
10:50	71.6	71.6	71.6	61	57.4	1	2	135	0.00	30.051 
10:55	71.8	71.8	71.8	62	58.1	1	3	135	0.00	30.051 
11:00	72.1	72.1	72.1	63	58.8	1	4	90	0.00	30.053 
11:05	72.1	72.1	72.1	60	57.4	1	4	90	0.00	30.053 
11:10	72.1	72.1	72.1	60	57.4	1	4	112	0.00	30.053 
11:15	72.0	72.0	72.0	61	57.8	0	3	90	0.00	30.054 
11:20	71.6	71.6	71.6	61	57.4	0	3	112	0.00	30.054 
11:25	71.6	71.6	71.6	60	57.0	1	4	112	0.00	30.054 
11:30	71.1	71.1	71.1	62	57.4	1	5	292	0.00	30.058 
11:35	71.5	71.5	71.5	62	57.8	0	3	292	0.00	30.058 
11:40	72.3	72.3	72.3	61	58.1	1	5	158	0.00	30.058 
11:45	72.7	72.7	72.7	61	58.5	1	3	180	0.00	30.059 
11:50	72.3	72.3	72.3	58	56.7	2	5	292	0.00	30.059 
11:55	72.5	72.5	72.5	61	58.3	1	4	292	0.00	30.059 
12:00	73.2	73.2	73.2	59	58.0	1	3	292	0.00	30.067 
12:05	72.3	72.3	72.3	57	56.2	1	4	292	0.00	30.067 
12:10	72.3	72.3	72.3	58	56.7	1	5	292	0.00	30.067 
12:15	72.8	72.8	72.8	54	55.2	1	3	315	0.00	30.069 
12:20	73.9	73.9	73.9	59	58.7	1	5	90	0.00	30.069 
12:25	73.5	73.5	73.5	55	56.3	1	3	90	0.00	30.069 
12:30	72.5	72.5	72.5	56	55.9	1	3	292	0.00	30.069 
12:35	72.1	72.1	72.1	57	56.0	1	3	292	0.00	30.069 
12:40	72.5	72.5	72.5	56	55.9	0	2	225	0.00	30.069 
12:45	73.2	73.2	73.2	54	55.5	1	3	225	0.00	30.068 
12:50	73.7	73.7	73.7	54	56.0	0	3	202	0.00	30.068 
12:55	74.0	74.0	74.0	52	55.2	1	3	112	0.00	30.068 
13:00	74.4	74.4	74.4	54	56.7	2	6	90	0.00	30.055 
13:05	74.4	74.4	74.4	52	55.6	1	4	292	0.00	30.055 
13:10	74.4	74.4	74.4	52	55.6	1	4	90	0.00	30.055 
13:15	74.6	74.6	74.6	54	56.8	1	4	90	0.00	30.045 
13:20	74.9	74.9	74.9	56	58.1	1	4	135	0.00	30.045 
13:25	74.9	74.9	74.9	54	57.1	2	5	112	0.00	30.045 
13:30	74.9	74.9	74.9	53	56.6	1	4	68	0.00	30.039 
13:35	75.1	75.1	77.6	56	58.3	1	3	158	0.00	30.039 
13:40	75.1	75.1	77.7	51	55.7	3	6	112	0.00	30.039 
13:45	74.9	74.9	74.9	51	55.5	2	4	112	0.00	30.039 
13:50	74.9	74.9	74.9	53	56.6	1	3	0	0.00	30.039 
13:55	75.3	75.3	77.7	53	57.0	1	5	112	0.00	30.039 
14:00	75.3	75.3	77.7	49	54.8	2	4	112	0.00	30.044 
14:05	75.4	75.4	77.8	54	57.6	1	3	112	0.00	30.044 
14:10	75.4	75.4	77.8	50	55.4	3	6	90	0.00	30.044 
14:15	75.6	75.6	77.9	51	56.2	1	6	112	0.00	30.038 
14:20	75.4	75.4	77.8	50	55.4	2	6	90	0.00	30.038 
14:25	75.6	75.6	77.9	52	56.7	2	7	90	0.00	30.038 
14:30	75.4	75.4	77.8	51	56.0	2	7	90	0.00	30.031 
14:35	75.8	75.8	78.0	50	55.8	0	2	112	0.00	30.031 
14:40	76.1	76.1	78.1	49	55.5	1	3	112	0.00	30.031 
14:45	76.1	76.1	78.1	51	56.6	1	4	112	0.00	30.030 
14:50	75.8	75.8	78.0	52	56.9	1	5	112	0.00	30.030 
14:55	75.8	75.8	78.0	49	55.3	0	3	112	0.00	30.030 
15:00	76.5	76.5	78.4	52	57.5	0	2	112	0.00	30.030 
15:05	76.7	76.7	78.4	48	55.5	1	5	112	0.00	30.030 
15:10	76.7	76.7	78.4	49	56.1	1	3	112	0.00	30.030 
15:15	76.5	76.5	78.3	49	55.9	1	5	68	0.00	30.030 
15:20	76.8	76.8	78.5	49	56.2	1	3	68	0.00	30.030 
15:25	76.7	76.7	78.3	45	53.7	1	3	68	0.00	30.030 
15:30	76.7	76.7	78.3	46	54.3	0	3	22	0.00	30.024 
15:35	76.8	76.8	78.4	48	55.6	1	3	112	0.00	30.024 
15:40	76.8	76.8	78.5	49	56.2	1	3	112	0.00	30.024 
15:45	76.8	76.8	78.5	50	56.7	1	5	292	0.00	30.033 
15:50	76.7	76.7	78.3	44	53.1	1	3	292	0.00	30.033 
15:55	76.8	76.8	78.4	48	55.6	1	3	292	0.00	30.033 
16:00	77.0	77.0	78.5	46	54.6	1	3	292	0.00	30.037 
16:05	77.2	77.2	78.5	44	53.6	1	3	90	0.00	30.037 
16:10	77.7	77.7	78.8	45	54.6	0	2	90	0.00	30.037 
16:15	78.3	78.3	79.1	44	54.6	0	2	90	0.00	30.036 
16:20	78.3	78.3	79.2	45	55.2	0	2	90	0.00	30.036 
16:25	78.3	78.3	79.2	46	55.8	0	1	90	0.00	30.036 
16:30	77.7	77.7	78.7	43	53.4	1	4	315	0.00	30.034 
16:35	78.1	78.1	78.8	41	52.5	0	1	315	0.00	30.034 
16:40	78.6	78.6	79.2	42	53.6	0	3	315	0.00	30.034 
16:45	78.6	78.6	79.2	43	54.2	1	4	112	0.00	30.032 
16:50	78.3	78.3	79.1	44	54.6	0	3	112	0.00	30.032 
16:55	77.9	77.9	79.0	46	55.4	1	4	112	0.00	30.032 
17:00	77.9	77.9	79.1	49	57.2	1	4	112	0.00	30.027 
17:05	77.9	77.9	79.1	48	56.6	2	5	112	0.00	30.027 
17:10	77.9	77.9	79.0	46	55.4	1	3	112	0.00	30.027 
17:15	77.9	77.9	79.0	46	55.4	1	5	112	0.00	30.022 
17:20	77.7	77.7	78.8	45	54.6	0	3	112	0.00	30.022 
17:25	77.6	77.6	78.6	42	52.7	0	2	112	0.00	30.022 
17:30	77.9	77.9	78.9	45	54.8	0	1	112	0.00	30.022 
17:35	78.1	78.1	78.9	43	53.8	1	5	112	0.00	30.022 
17:40	77.7	77.7	78.7	42	52.8	1	3	112	0.00	30.022 
17:45	77.2	77.2	78.5	43	52.9	0	1	112	0.00	30.027 
17:50	76.8	76.8	78.4	47	55.0	0	0	---	0.00	30.027 
17:55	77.0	77.0	78.4	44	53.4	0	0	---	0.00	30.027 
18:00	77.0	77.0	78.4	43	52.8	0	1	112	0.00	30.025 
18:05	77.0	77.0	78.4	44	53.4	0	0	---	0.00	30.025 
18:10	76.8	76.8	78.3	43	52.6	0	1	112	0.00	30.025 
18:15	76.8	76.8	78.2	41	51.3	0	2	112	0.00	30.020 
18:20	76.8	76.8	78.2	42	51.9	0	1	112	0.00	30.020 
18:25	76.7	76.7	78.3	44	53.1	1	2	112	0.00	30.020 
18:30	76.5	76.5	78.2	44	52.9	0	2	112	0.00	30.019 
18:35	76.3	76.3	78.1	45	53.4	0	1	112	0.00	30.019 
18:40	76.1	76.1	78.0	43	52.0	0	1	112	0.00	30.019 
18:45	75.8	75.8	77.9	46	53.5	0	0	---	0.00	30.017 
18:50	75.4	75.4	77.7	45	52.6	0	1	112	0.00	30.017 
18:55	75.1	75.1	77.7	46	52.9	0	1	112	0.00	30.017 
19:00	75.3	75.3	77.7	48	54.2	0	1	112	0.00	30.019 
19:05	75.3	75.3	77.7	45	52.5	0	1	112	0.00	30.019 
19:10	75.4	75.4	77.7	44	52.0	0	2	112	0.00	30.019 
19:15	75.4	75.4	77.8	46	53.2	0	0	---	0.00	30.014 
19:20	75.4	75.4	77.7	43	51.3	0	1	112	0.00	30.014 
19:25	75.6	75.6	77.8	46	53.3	0	0	---	0.00	30.014 
19:30	75.4	75.4	77.7	45	52.6	0	1	112	0.00	30.012 
19:35	75.4	75.4	77.7	44	52.0	0	0	---	0.00	30.012 
19:40	75.4	75.4	77.7	44	52.0	0	2	112	0.00	30.012 
19:45	75.3	75.3	77.7	44	51.9	0	0	---	0.00	30.013 
19:50	74.9	74.9	74.9	46	52.7	0	0	---	0.00	30.013 
19:55	74.6	74.6	74.6	48	53.6	0	0	---	0.00	30.013 
20:00	74.4	74.4	74.4	48	53.4	0	0	---	0.00	30.014 
20:05	74.4	74.4	74.4	49	54.0	0	0	---	0.00	30.014 
20:10	74.4	74.4	74.4	48	53.4	0	0	---	0.00	30.014 
20:15	74.4	74.4	74.4	48	53.4	0	0	---	0.00	30.016 
20:20	74.4	74.4	74.4	50	54.5	0	0	---	0.00	30.016 
20:25	74.4	74.4	74.4	52	55.6	0	0	---	0.00	30.016 
20:30	74.4	74.4	74.4	51	55.1	0	0	---	0.00	30.016 
20:35	74.2	74.2	74.2	50	54.3	0	0	---	0.00	30.016 
20:40	74.0	74.0	74.0	50	54.2	0	0	---	0.00	30.016 
20:45	73.7	73.7	73.7	51	54.4	0	0	---	0.00	30.017 
20:50	73.2	73.2	73.2	50	53.4	0	0	---	0.00	30.017 
20:55	72.8	72.8	72.8	53	54.7	0	0	---	0.00	30.017 
21:00	72.3	72.3	72.3	55	55.2	0	0	---	0.00	30.018 
21:05	71.8	71.8	71.8	55	54.7	0	0	---	0.00	30.018 
21:10	71.1	71.1	71.1	54	53.6	0	0	---	0.00	30.018 
21:15	70.8	70.8	70.8	56	54.3	0	0	---	0.00	30.018 
21:20	70.4	70.4	70.4	58	54.9	0	0	---	0.00	30.018 
21:25	70.1	70.1	70.1	59	55.1	0	0	---	0.00	30.018 
21:30	69.8	69.8	69.8	60	55.3	0	0	---	0.00	30.021 
21:35	69.4	69.4	69.4	60	54.9	0	0	---	0.00	30.021 
21:40	69.1	69.1	69.1	62	55.5	0	0	---	0.00	30.021 
21:45	68.8	68.8	68.8	62	55.2	0	0	---	0.00	30.020 
21:50	68.4	68.4	68.4	63	55.3	0	0	---	0.00	30.020 
21:55	68.1	68.1	68.1	63	55.0	0	0	---	0.00	30.020 
22:00	67.8	67.8	67.8	64	55.2	0	0	---	0.00	30.024 
22:05	67.6	67.6	67.6	64	55.0	0	0	---	0.00	30.024 
22:10	67.1	67.1	67.1	65	54.9	0	0	---	0.00	30.024 
22:15	66.8	66.8	66.8	66	55.1	0	0	---	0.00	30.026 
22:20	66.4	66.4	66.4	67	55.1	0	0	---	0.00	30.026 
22:25	66.3	66.3	66.3	69	55.8	0	0	---	0.00	30.026 
22:30	66.0	66.0	66.0	69	55.5	0	0	---	0.00	30.029 
22:35	65.6	65.6	65.6	71	55.9	0	0	---	0.00	30.029 
22:40	65.3	65.3	65.3	71	55.6	0	0	---	0.00	30.029 
22:45	65.2	65.2	65.2	73	56.3	0	0	---	0.00	30.029 
22:50	65.0	65.0	65.0	74	56.5	0	0	---	0.00	30.029 
22:55	64.8	64.8	64.8	74	56.3	0	0	---	0.00	30.029 
23:00	64.5	64.5	64.5	74	56.0	0	0	---	0.00	30.027 
23:05	64.3	64.3	64.3	74	55.8	0	0	---	0.00	30.027 
23:10	64.2	64.2	64.2	76	56.5	0	0	---	0.00	30.027 
23:15	64.0	64.0	64.0	77	56.6	0	0	---	0.00	30.029 
23:20	63.9	63.9	63.9	78	56.9	0	1	112	0.00	30.029 
23:25	63.9	63.9	63.9	78	56.9	0	0	---	0.00	30.029 
23:30	63.7	63.7	63.7	78	56.7	0	0	---	0.00	30.023 
23:35	63.5	63.5	63.5	78	56.5	0	0	---	0.00	30.023 
23:40	63.4	63.4	63.4	79	56.8	0	0	---	0.00	30.023 
23:45	63.2	63.2	63.2	79	56.6	0	0	---	0.00	30.020 
23:50	63.1	63.1	63.1	79	56.5	0	0	---	0.00	30.020 
23:55	62.9	62.9	62.9	80	56.6	0	0	---	0.00	30.020 

CoCoRaHS
IN-AL-39
A2 Web Hosting
Creative Commons License
GoDaddy
search engine by freefind advanced

loaded 2018-11-19 19:40:55 • last modified 2010-11-18 10:43:29
Privacy PolicyDisclaimer
• wx.awcolley.com is powered by PmWiki v.2002016 •
• all content (unless otherwise noted) © 2018 A W Colley